createdAt,value
2023-03-03T00:01:34.329Z,0.76
2023-03-03T00:04:19.841Z,-0.46
2023-03-03T00:07:05.327Z,0.78
2023-03-03T00:09:51.367Z,0.77
2023-03-03T00:12:49.029Z,0.65
2023-03-03T00:15:36.239Z,0.59
2023-03-03T00:18:33.592Z,0.83
2023-03-03T00:21:29.403Z,0.69
2023-03-03T00:24:22.546Z,0.55
2023-03-03T00:27:38.275Z,0.43
2023-03-03T00:30:26.856Z,0.10
2023-03-03T00:33:45.971Z,0.23
2023-03-03T00:36:38.305Z,0.21
2023-03-03T00:39:29.601Z,0.23
2023-03-03T00:42:16.911Z,0.04
2023-03-03T00:45:02.103Z,0.07
2023-03-03T00:47:47.847Z,0.43
2023-03-03T00:50:35.683Z,0.45
2023-03-03T00:53:23.565Z,-0.45
2023-03-03T00:56:09.019Z,0.36
2023-03-03T00:58:54.828Z,-1.04
2023-03-03T01:01:41.139Z,0.24
2023-03-03T01:04:27.404Z,-0.74
2023-03-03T01:07:12.731Z,0.42
2023-03-03T01:09:58.335Z,0.35
2023-03-03T01:12:43.757Z,0.19
2023-03-03T01:15:29.308Z,-0.69
2023-03-03T01:18:15.237Z,0.04
2023-03-03T01:21:02.189Z,-1.16
2023-03-03T01:23:47.449Z,0.05
2023-03-03T01:26:33.101Z,-0.17
2023-03-03T01:29:18.477Z,-1.50
2023-03-03T01:32:04.102Z,-1.47
2023-03-03T01:34:49.479Z,-0.31
2023-03-03T01:37:36.055Z,-0.34
2023-03-03T01:40:28.286Z,-0.25
2023-03-03T01:43:15.882Z,-0.10
2023-03-03T01:46:01.177Z,0.06
2023-03-03T01:48:46.890Z,0.14
2023-03-03T01:51:38.728Z,0.13
2023-03-03T01:54:33.805Z,0.05
2023-03-03T01:57:30.879Z,0.02
2023-03-03T02:00:16.992Z,-0.21
2023-03-03T02:03:02.784Z,-0.12
2023-03-03T02:05:50.802Z,-0.04
2023-03-03T02:08:47.023Z,-0.34
2023-03-03T02:11:36.322Z,-0.32
2023-03-03T02:14:21.427Z,-0.69
2023-03-03T02:17:07.167Z,-0.98
2023-03-03T02:20:03.489Z,-1.10
2023-03-03T02:23:23.562Z,-1.21
2023-03-03T02:26:16.157Z,-1.19
2023-03-03T02:29:01.763Z,-1.30
2023-03-03T02:31:48.413Z,-1.10
2023-03-03T02:34:47.030Z,-0.87
2023-03-03T02:37:32.788Z,-0.77
2023-03-03T02:40:24.415Z,-0.74
2023-03-03T02:43:11.946Z,-0.72
2023-03-03T02:45:58.012Z,-0.72
2023-03-03T02:48:43.589Z,-1.16
2023-03-03T02:51:29.086Z,-0.88
2023-03-03T02:54:16.864Z,-1.06
2023-03-03T02:57:03.294Z,-1.11
2023-03-03T02:59:48.902Z,-2.41
2023-03-03T03:02:36.290Z,-1.12
2023-03-03T03:05:22.566Z,-1.17
2023-03-03T03:08:08.652Z,-1.68
2023-03-03T03:10:54.360Z,-2.65
2023-03-03T03:13:40.205Z,-1.51
2023-03-03T03:16:26.247Z,-2.20
2023-03-03T03:19:11.876Z,-1.39
2023-03-03T03:21:58.689Z,-1.49
2023-03-03T03:24:45.102Z,-1.35
2023-03-03T03:27:30.929Z,-2.48
2023-03-03T03:30:16.449Z,-1.53
2023-03-03T03:33:01.946Z,-1.50
2023-03-03T03:35:48.313Z,-2.72
2023-03-03T03:38:39.184Z,-1.10
2023-03-03T03:41:26.028Z,-1.12
2023-03-03T03:44:11.940Z,-0.91
2023-03-03T03:46:57.901Z,-2.25
2023-03-03T03:49:43.893Z,-0.82
2023-03-03T03:52:29.232Z,-0.89
2023-03-03T03:55:15.149Z,-0.70
2023-03-03T03:58:00.768Z,-0.68
2023-03-03T04:00:47.154Z,-0.67
2023-03-03T04:03:33.373Z,-0.69
2023-03-03T04:06:19.904Z,-0.86
2023-03-03T04:09:06.253Z,-0.56
2023-03-03T04:11:53.913Z,-0.51
2023-03-03T04:14:39.700Z,-0.76
2023-03-03T04:17:25.644Z,-0.48
2023-03-03T04:20:15.428Z,-0.50
2023-03-03T04:23:03.152Z,-0.62
2023-03-03T04:25:50.269Z,-0.73
2023-03-03T04:28:36.601Z,-1.74
2023-03-03T04:31:21.975Z,-0.68
2023-03-03T04:34:08.040Z,-0.65
2023-03-03T04:36:54.486Z,-2.14
2023-03-03T04:39:39.953Z,-1.45
2023-03-03T04:42:28.837Z,-0.74
2023-03-03T04:45:14.946Z,-0.75
2023-03-03T04:48:00.859Z,-2.16
2023-03-03T04:50:46.854Z,-0.95
2023-03-03T04:53:32.500Z,-0.81
2023-03-03T04:56:17.977Z,-1.87
2023-03-03T04:59:04.105Z,-0.82
2023-03-03T05:01:51.124Z,-1.02
2023-03-03T05:04:37.083Z,-0.95
2023-03-03T05:07:22.760Z,-1.01
2023-03-03T05:10:09.079Z,-0.84
2023-03-03T05:12:54.781Z,-0.86
2023-03-03T05:15:43.117Z,-0.87
2023-03-03T05:18:28.690Z,-0.95
2023-03-03T05:21:14.635Z,-2.33
2023-03-03T05:24:00.667Z,-1.09
2023-03-03T05:26:46.413Z,-0.98
2023-03-03T05:29:33.538Z,-1.07
2023-03-03T05:32:19.101Z,-2.23
2023-03-03T05:35:05.583Z,-2.02
2023-03-03T05:37:52.700Z,-2.17
2023-03-03T05:40:39.488Z,-2.25
2023-03-03T05:43:25.254Z,-0.65
2023-03-03T05:46:11.487Z,-0.65
2023-03-03T05:48:57.550Z,-0.55
2023-03-03T05:51:42.911Z,-1.92
2023-03-03T05:54:28.485Z,-0.62
2023-03-03T05:57:13.924Z,-0.56
2023-03-03T05:59:59.581Z,-0.36
2023-03-03T06:02:45.024Z,-1.67
2023-03-03T06:05:35.220Z,-1.31
2023-03-03T06:08:22.445Z,-1.60
2023-03-03T06:11:07.687Z,-1.60
2023-03-03T06:13:53.459Z,-1.27
2023-03-03T06:16:39.626Z,-1.25
2023-03-03T06:19:25.594Z,-0.13
2023-03-03T06:22:11.118Z,-1.53
2023-03-03T06:24:56.418Z,-1.66
2023-03-03T06:27:41.792Z,-0.11
2023-03-03T06:30:28.425Z,-0.06
2023-03-03T06:33:13.709Z,-0.13
2023-03-03T06:35:59.590Z,-0.18
2023-03-03T06:38:45.184Z,-1.71
2023-03-03T06:41:30.829Z,-0.20
2023-03-03T06:44:16.900Z,-0.13
2023-03-03T06:47:02.851Z,0.00
2023-03-03T06:49:48.786Z,0.07
2023-03-03T06:52:34.236Z,0.16
2023-03-03T06:55:23.287Z,-0.07
2023-03-03T06:58:14.443Z,0.29
2023-03-03T07:01:01.672Z,-0.39
2023-03-03T07:03:47.085Z,0.10
2023-03-03T07:06:32.497Z,0.25
2023-03-03T07:09:24.476Z,-0.94
2023-03-03T07:12:19.598Z,0.36
2023-03-03T07:15:24.176Z,0.31
2023-03-03T07:18:48.213Z,0.26
2023-03-03T07:21:38.144Z,0.16
2023-03-03T07:24:31.590Z,-1.19
2023-03-03T07:27:24.223Z,0.17
2023-03-03T07:30:27.425Z,0.24
2023-03-03T07:33:21.253Z,0.32
2023-03-03T07:36:19.849Z,0.38
2023-03-03T07:39:17.612Z,0.52
2023-03-03T07:42:09.646Z,0.61
2023-03-03T07:45:00.171Z,0.23
2023-03-03T07:47:45.735Z,0.70
2023-03-03T07:50:31.157Z,-0.41
2023-03-03T07:53:29.588Z,-0.61
2023-03-03T07:56:30.988Z,0.68
2023-03-03T07:59:25.957Z,0.61
2023-03-03T08:02:55.574Z,0.91
2023-03-03T08:05:43.530Z,0.91
2023-03-03T08:08:33.655Z,0.96
2023-03-03T08:11:19.359Z,0.59
2023-03-03T08:14:13.124Z,0.92
2023-03-03T08:17:01.327Z,1.03
2023-03-03T08:19:48.031Z,0.89
2023-03-03T08:22:38.519Z,0.98
2023-03-03T08:25:24.205Z,1.02
2023-03-03T08:28:11.401Z,0.52
2023-03-03T08:31:12.568Z,1.06
2023-03-03T08:34:01.209Z,1.09
2023-03-03T08:36:47.501Z,0.17
2023-03-03T08:39:33.057Z,1.05
2023-03-03T08:42:18.507Z,1.12
2023-03-03T08:45:04.285Z,1.13
2023-03-03T08:47:49.454Z,1.15
2023-03-03T08:50:35.059Z,0.58
2023-03-03T08:53:21.990Z,-0.19
2023-03-03T08:56:08.025Z,-0.31
2023-03-03T08:59:02.092Z,-0.20
2023-03-03T09:01:49.477Z,1.26
2023-03-03T09:04:35.024Z,1.27
2023-03-03T09:07:20.322Z,1.14
2023-03-03T09:10:06.959Z,0.00
2023-03-03T09:12:52.232Z,1.23
2023-03-03T09:15:38.920Z,1.36
2023-03-03T09:18:38.635Z,1.40
2023-03-03T09:21:32.895Z,1.42
2023-03-03T09:24:29.993Z,1.17
2023-03-03T09:27:37.204Z,1.39
2023-03-03T09:30:26.113Z,1.42
2023-03-03T09:33:41.216Z,1.40
2023-03-03T09:36:28.691Z,1.38
2023-03-03T09:39:21.610Z,1.21
2023-03-03T09:42:38.869Z,1.37
2023-03-03T09:46:06.473Z,1.35
2023-03-03T09:49:16.891Z,1.33
2023-03-03T09:52:35.990Z,1.27
2023-03-03T09:55:46.372Z,1.28
2023-03-03T09:59:15.981Z,1.23
2023-03-03T10:02:13.259Z,1.19
2023-03-03T10:05:14.357Z,-0.17
2023-03-03T10:08:12.712Z,1.00
2023-03-03T10:11:24.204Z,1.22
2023-03-03T10:14:28.362Z,1.28
2023-03-03T10:17:39.247Z,1.34
2023-03-03T10:20:56.663Z,1.36
2023-03-03T10:24:00.647Z,1.40
2023-03-03T10:27:05.277Z,1.46
2023-03-03T10:30:12.296Z,1.57
2023-03-03T10:33:25.471Z,1.65
2023-03-03T10:36:11.142Z,1.68
2023-03-03T10:39:17.959Z,1.71
2023-03-03T10:42:28.357Z,1.73
2023-03-03T10:45:50.786Z,1.71
2023-03-03T10:49:33.670Z,1.81
2023-03-03T10:52:31.712Z,1.78
2023-03-03T10:55:40.620Z,1.99
2023-03-03T10:59:03.668Z,2.17
2023-03-03T11:02:02.125Z,0.88
2023-03-03T11:05:00.350Z,2.33
2023-03-03T11:07:52.538Z,1.06
2023-03-03T11:10:38.470Z,2.49
2023-03-03T11:14:03.207Z,2.59
2023-03-03T11:17:20.610Z,2.66
2023-03-03T11:20:24.388Z,2.69
2023-03-03T11:23:40.175Z,2.72
2023-03-03T11:26:37.510Z,2.75
2023-03-03T11:29:53.081Z,2.73
2023-03-03T11:33:03.410Z,2.73
2023-03-03T11:36:00.292Z,3.02
2023-03-03T11:39:14.679Z,3.07
2023-03-03T11:42:23.791Z,3.22
2023-03-03T11:45:19.792Z,3.28
2023-03-03T11:48:20.542Z,3.17
2023-03-03T11:51:27.774Z,3.37
2023-03-03T11:54:52.249Z,3.45
2023-03-03T11:58:03.423Z,3.49
2023-03-03T12:01:00.735Z,3.52
2023-03-03T12:04:10.551Z,3.39
2023-03-03T12:07:23.337Z,2.23
2023-03-03T12:10:36.269Z,3.54
2023-03-03T12:13:40.282Z,3.50
2023-03-03T12:16:40.702Z,3.54
2023-03-03T12:19:46.990Z,3.52
2023-03-03T12:22:38.656Z,3.53
2023-03-03T12:25:26.884Z,3.55
2023-03-03T12:28:26.030Z,3.52
2023-03-03T12:31:32.881Z,3.46
2023-03-03T12:34:38.916Z,3.36
2023-03-03T12:37:45.593Z,3.35
2023-03-03T12:40:34.470Z,2.08
2023-03-03T12:43:40.738Z,3.31
2023-03-03T12:46:44.549Z,2.44
2023-03-03T12:49:48.094Z,3.32
2023-03-03T12:52:54.162Z,3.29
2023-03-03T12:56:04.192Z,3.28
2023-03-03T12:59:18.009Z,3.24
2023-03-03T13:02:38.049Z,3.27
2023-03-03T13:06:06.138Z,3.29
2023-03-03T13:09:02.081Z,3.28
2023-03-03T13:12:02.351Z,3.13
2023-03-03T13:15:17.231Z,3.32
2023-03-03T13:18:30.648Z,2.36
2023-03-03T13:21:32.408Z,3.36
2023-03-03T13:24:34.197Z,3.08
2023-03-03T13:27:25.688Z,3.14
2023-03-03T13:30:23.881Z,3.28
2023-03-03T13:33:18.485Z,3.18
2023-03-03T13:36:10.006Z,2.37
2023-03-03T13:39:00.380Z,3.35
2023-03-03T13:41:49.495Z,2.24
2023-03-03T13:44:42.557Z,3.10
2023-03-03T13:47:47.918Z,3.40
2023-03-03T13:50:47.917Z,3.43
2023-03-03T13:53:55.416Z,3.42
2023-03-03T13:57:02.555Z,3.48
2023-03-03T14:00:38.703Z,3.48
2023-03-03T14:03:41.357Z,3.49
2023-03-03T14:06:28.812Z,3.51
2023-03-03T14:09:51.731Z,3.54
2023-03-03T14:13:02.269Z,3.56
2023-03-03T14:16:03.871Z,3.42
2023-03-03T14:19:00.141Z,3.57
2023-03-03T14:22:00.955Z,3.58
2023-03-03T14:25:07.580Z,3.61
2023-03-03T14:28:02.928Z,3.59
2023-03-03T14:30:49.163Z,2.49
2023-03-03T14:33:34.907Z,3.53
2023-03-03T14:36:29.960Z,3.42
2023-03-03T14:39:39.675Z,3.61
2023-03-03T14:42:37.035Z,3.58
2023-03-03T14:45:40.493Z,3.24
2023-03-03T14:48:27.572Z,3.52
2023-03-03T14:51:25.608Z,3.54
2023-03-03T14:54:25.011Z,3.38
2023-03-03T14:57:18.014Z,3.28
2023-03-03T15:00:11.989Z,3.45
2023-03-03T15:03:18.155Z,3.48
2023-03-03T15:06:27.980Z,3.08
2023-03-03T15:09:48.879Z,3.42
2023-03-03T15:12:37.553Z,2.09
2023-03-03T15:15:26.905Z,2.00
2023-03-03T15:18:13.553Z,3.29
2023-03-03T15:21:11.928Z,3.28
2023-03-03T15:24:10.477Z,3.25
2023-03-03T15:27:03.491Z,3.22
2023-03-03T15:30:12.487Z,3.15
2023-03-03T15:33:14.235Z,3.09
2023-03-03T15:36:23.407Z,3.10
2023-03-03T15:39:47.886Z,3.07
2023-03-03T15:42:55.732Z,3.03
2023-03-03T15:45:52.734Z,2.92
2023-03-03T15:48:38.251Z,2.96
2023-03-03T15:52:03.699Z,2.96
2023-03-03T15:55:00.665Z,2.94
2023-03-03T15:58:15.731Z,2.77
2023-03-03T16:01:31.346Z,1.57
2023-03-03T16:04:21.073Z,2.90
2023-03-03T16:10:55.852Z,2.80
2023-03-03T16:13:50.440Z,2.79
2023-03-03T16:16:54.457Z,2.75
2023-03-03T16:19:56.615Z,2.70
2023-03-03T16:22:54.567Z,2.68
2023-03-03T16:25:58.398Z,2.66
2023-03-03T16:28:55.912Z,2.62
2023-03-03T16:31:56.165Z,2.61
2023-03-03T16:34:59.246Z,2.53
2023-03-03T16:38:01.160Z,2.55
2023-03-03T16:40:56.874Z,2.57
2023-03-03T16:44:12.879Z,2.56
2023-03-03T16:47:13.321Z,2.31
2023-03-03T16:50:23.406Z,2.54
2023-03-03T16:53:34.887Z,2.53
2023-03-03T16:56:25.302Z,1.76
2023-03-03T16:59:28.550Z,1.50
2023-03-03T17:02:27.712Z,2.49
2023-03-03T17:05:28.483Z,2.47
2023-03-03T17:08:46.390Z,2.51
2023-03-03T17:12:18.712Z,2.54
2023-03-03T17:15:33.426Z,2.37
2023-03-03T17:18:32.641Z,2.57
2023-03-03T17:21:34.808Z,2.37
2023-03-03T17:24:39.563Z,1.18
2023-03-03T17:27:39.974Z,2.46
2023-03-03T17:30:53.087Z,2.58
2023-03-03T17:34:17.161Z,2.47
2023-03-03T17:37:29.284Z,2.59
2023-03-03T17:40:58.826Z,2.59
2023-03-03T17:44:09.152Z,2.57
2023-03-03T17:47:04.419Z,1.30
2023-03-03T17:50:26.297Z,2.57
2023-03-03T17:53:32.942Z,2.56
2023-03-03T17:56:33.828Z,2.54
2023-03-03T17:59:31.856Z,2.50
2023-03-03T18:02:35.075Z,2.08
2023-03-03T18:06:12.918Z,2.56
2023-03-03T18:09:23.943Z,2.57
2023-03-03T18:12:22.341Z,2.57
2023-03-03T18:15:29.088Z,2.58
2023-03-03T18:18:31.481Z,1.30
2023-03-03T18:21:24.945Z,2.57
2023-03-03T18:24:30.628Z,2.36
2023-03-03T18:27:25.486Z,2.59
2023-03-03T18:30:16.801Z,2.59
2023-03-03T18:33:08.902Z,1.18
2023-03-03T18:36:14.070Z,2.34
2023-03-03T18:39:02.963Z,2.58
2023-03-03T18:42:08.386Z,2.58
2023-03-03T18:44:54.785Z,2.61
2023-03-03T18:48:02.106Z,2.62
2023-03-03T18:50:50.708Z,2.62
2023-03-03T18:53:36.607Z,2.36
2023-03-03T18:56:42.532Z,2.59
2023-03-03T18:59:31.822Z,2.60
2023-03-03T19:02:28.577Z,2.58
2023-03-03T19:05:15.963Z,2.07
2023-03-03T19:08:22.499Z,2.54
2023-03-03T19:11:48.051Z,2.57
2023-03-03T19:14:43.027Z,2.36
2023-03-03T19:17:38.940Z,2.53
2023-03-03T19:20:25.400Z,2.29
2023-03-03T19:23:17.422Z,2.16
2023-03-03T19:26:42.134Z,2.51
2023-03-03T19:29:41.566Z,2.45
2023-03-03T19:32:31.928Z,2.42
2023-03-03T19:35:33.024Z,2.39
2023-03-03T19:38:37.533Z,2.39
2023-03-03T19:41:56.059Z,2.40
2023-03-03T19:44:59.933Z,2.37
2023-03-03T19:47:51.742Z,2.31
2023-03-03T19:50:42.934Z,2.34
2023-03-03T19:53:33.896Z,2.30
2023-03-03T19:56:27.554Z,2.30
2023-03-03T19:59:18.145Z,2.34
2023-03-03T20:02:25.779Z,2.36
2023-03-03T20:05:21.505Z,2.41
2023-03-03T20:08:38.008Z,2.47
2023-03-03T20:11:35.917Z,2.44
2023-03-03T20:14:55.018Z,2.42
2023-03-03T20:17:58.643Z,2.37
2023-03-03T20:20:51.126Z,2.02
2023-03-03T20:23:48.738Z,2.33
2023-03-03T20:26:41.228Z,2.14
2023-03-03T20:29:44.419Z,2.19
2023-03-03T20:32:34.207Z,2.26
2023-03-03T20:35:24.909Z,2.13
2023-03-03T20:38:29.206Z,2.20
2023-03-03T20:41:29.668Z,2.15
2023-03-03T20:44:21.542Z,2.10
2023-03-03T20:47:36.104Z,2.07
2023-03-03T20:50:51.629Z,2.05
2023-03-03T20:53:41.958Z,2.07
2023-03-03T20:56:39.267Z,2.05
2023-03-03T20:59:51.290Z,2.04
2023-03-03T21:02:51.788Z,1.96
2023-03-03T21:05:55.918Z,2.04
2023-03-03T21:08:55.457Z,1.94
2023-03-03T21:11:43.892Z,2.04
2023-03-03T21:14:36.535Z,1.84
2023-03-03T21:17:29.220Z,2.02
2023-03-03T21:20:20.882Z,2.09
2023-03-03T21:23:10.390Z,0.93
2023-03-03T21:25:58.003Z,0.99
2023-03-03T21:29:00.523Z,1.84
2023-03-03T21:32:33.707Z,2.02
2023-03-03T21:35:23.796Z,2.00
2023-03-03T21:38:09.478Z,2.00
2023-03-03T21:41:02.799Z,1.81
2023-03-03T21:43:53.868Z,1.91
2023-03-03T21:46:39.369Z,0.58
2023-03-03T21:49:26.715Z,1.82
2023-03-03T21:52:13.478Z,1.79
2023-03-03T21:54:59.621Z,1.74
2023-03-03T21:57:45.452Z,0.38
2023-03-03T22:00:30.959Z,1.60
2023-03-03T22:03:19.961Z,1.66
2023-03-03T22:06:06.031Z,1.70
2023-03-03T22:08:51.777Z,1.70
2023-03-03T22:11:38.293Z,1.52
2023-03-03T22:14:23.833Z,1.63
2023-03-03T22:17:10.825Z,1.60
2023-03-03T22:19:56.704Z,1.62
2023-03-03T22:22:42.620Z,1.00
2023-03-03T22:25:28.229Z,1.48
2023-03-03T22:28:13.896Z,0.15
2023-03-03T22:30:59.208Z,0.34
2023-03-03T22:33:44.814Z,1.50
2023-03-03T22:36:30.656Z,1.38
2023-03-03T22:39:17.669Z,1.54
2023-03-03T22:42:03.756Z,1.55
2023-03-03T22:44:51.323Z,1.54
2023-03-03T22:47:46.650Z,1.54
2023-03-03T22:50:41.587Z,1.56
2023-03-03T22:53:34.200Z,1.53
2023-03-03T22:56:22.999Z,1.50
2023-03-03T22:59:08.994Z,1.45
2023-03-03T23:01:57.230Z,1.41
2023-03-03T23:04:43.500Z,1.39
2023-03-03T23:07:29.719Z,0.52
2023-03-03T23:10:16.157Z,1.20
2023-03-03T23:13:03.758Z,1.34
2023-03-03T23:15:49.964Z,1.03
2023-03-03T23:18:36.477Z,1.30
2023-03-03T23:21:23.530Z,1.14
2023-03-03T23:24:11.902Z,1.32
2023-03-03T23:26:58.140Z,1.17
2023-03-03T23:29:46.609Z,1.39
2023-03-03T23:32:33.061Z,0.26
2023-03-03T23:35:19.789Z,1.44
2023-03-03T23:38:05.319Z,1.53
2023-03-03T23:40:51.348Z,1.51
2023-03-03T23:43:36.943Z,1.59
2023-03-03T23:46:23.267Z,0.24
2023-03-03T23:49:09.681Z,0.34
2023-03-03T23:51:55.065Z,1.32
2023-03-03T23:54:40.680Z,1.43
2023-03-03T23:57:26.137Z,0.36
